createdAt,value
2018-09-15T00:00:55.492Z,101527.02
2018-09-15T00:03:24.306Z,101534.17
2018-09-15T00:05:52.461Z,101533.44
2018-09-15T00:08:20.504Z,101530.81
2018-09-15T00:10:49.036Z,101533.55
2018-09-15T00:13:17.598Z,101539.27
2018-09-15T00:15:45.927Z,101537.22
2018-09-15T00:18:15.579Z,101542.66
2018-09-15T00:20:43.720Z,101540.61
2018-09-15T00:23:12.301Z,101538.17
2018-09-15T00:25:41.235Z,101536.91
2018-09-15T00:28:10.142Z,101542.45
2018-09-15T00:30:38.344Z,101544.39
2018-09-15T00:33:06.549Z,101543.07
2018-09-15T00:35:35.612Z,101546.63
2018-09-15T00:38:04.730Z,101537.44
2018-09-15T00:40:32.755Z,101539.16
2018-09-15T00:43:00.819Z,101540.69
2018-09-15T00:45:29.064Z,101530.21
2018-09-15T00:47:57.349Z,101538.20
2018-09-15T00:50:25.405Z,101538.20
2018-09-15T00:52:53.465Z,101533.05
2018-09-15T00:55:21.518Z,101535.80
2018-09-15T00:57:49.568Z,101532.20
2018-09-15T01:00:18.751Z,101531.74
2018-09-15T01:02:46.929Z,101528.44
2018-09-15T01:05:15.284Z,101527.50
2018-09-15T01:07:43.336Z,101524.95
2018-09-15T01:10:11.438Z,101524.77
2018-09-15T01:12:39.480Z,101517.63
2018-09-15T01:15:07.532Z,101518.72
2018-09-15T01:17:35.590Z,101518.72
2018-09-15T01:20:04.686Z,101524.71
2018-09-15T01:22:32.692Z,101519.73
2018-09-15T01:25:00.789Z,101520.75
2018-09-15T01:27:28.835Z,101518.75
2018-09-15T01:29:56.894Z,101523.07
2018-09-15T01:32:26.489Z,101527.75
2018-09-15T01:34:54.566Z,101524.08
2018-09-15T01:37:22.617Z,101520.25
2018-09-15T01:39:50.665Z,101529.33
2018-09-15T01:42:18.721Z,101527.45
2018-09-15T01:44:46.884Z,101525.20
2018-09-15T01:47:14.956Z,101518.98
2018-09-15T01:49:43.013Z,101525.55
2018-09-15T01:52:11.060Z,101518.52
2018-09-15T01:54:39.200Z,101518.98
2018-09-15T01:57:07.579Z,101516.74
2018-09-15T01:59:35.648Z,101512.99
2018-09-15T02:02:03.740Z,101523.04
2018-09-15T02:04:31.770Z,101523.89
2018-09-15T02:06:59.859Z,101522.19
2018-09-15T02:09:27.949Z,101523.04
2018-09-15T02:11:56.007Z,101520.69
2018-09-15T02:14:24.059Z,101527.75
2018-09-15T02:16:52.148Z,101523.64
2018-09-15T02:19:20.795Z,101524.69
2018-09-15T02:21:48.836Z,101517.38
2018-09-15T02:24:16.905Z,101529.31
2018-09-15T02:26:45.031Z,101520.69
2018-09-15T02:29:13.092Z,101522.94
2018-09-15T02:31:41.228Z,101519.41
2018-09-15T02:34:09.302Z,101522.25
2018-09-15T02:36:37.377Z,101521.76
2018-09-15T02:39:07.330Z,101521.02
2018-09-15T02:41:35.391Z,101519.46
2018-09-15T02:44:03.556Z,101521.08
2018-09-15T02:46:31.632Z,101525.20
2018-09-15T02:48:59.779Z,101527.47
2018-09-15T02:51:27.863Z,101521.67
2018-09-15T02:53:55.900Z,101521.67
2018-09-15T02:56:23.956Z,101521.61
2018-09-15T02:58:52.060Z,101521.14
2018-09-15T03:01:20.168Z,101528.28
2018-09-15T03:03:48.425Z,101530.34
2018-09-15T03:06:16.488Z,101525.20
2018-09-15T03:08:44.541Z,101520.42
2018-09-15T03:11:13.059Z,101529.61
2018-09-15T03:13:41.148Z,101529.99
2018-09-15T03:16:09.208Z,101524.17
2018-09-15T03:18:37.574Z,101526.41
2018-09-15T03:21:05.875Z,101525.67
2018-09-15T03:23:33.925Z,101527.94
2018-09-15T03:26:02.390Z,101525.42
2018-09-15T03:28:30.495Z,101531.70
2018-09-15T03:30:58.543Z,101533.70
2018-09-15T03:33:26.615Z,101531.72
2018-09-15T03:35:54.670Z,101537.07
2018-09-15T03:38:22.728Z,101538.11
2018-09-15T03:40:50.792Z,101542.26
2018-09-15T03:43:18.835Z,101539.17
2018-09-15T03:45:46.893Z,101542.61
2018-09-15T03:48:14.950Z,101543.56
2018-09-15T03:50:43.410Z,101539.73
2018-09-15T03:53:11.469Z,101539.34
2018-09-15T03:55:39.518Z,101538.71
2018-09-15T03:58:07.594Z,101533.92
2018-09-15T04:00:35.664Z,101535.06
2018-09-15T04:03:04.753Z,101540.59
2018-09-15T04:05:32.811Z,101538.82
2018-09-15T04:08:00.860Z,101539.56
2018-09-15T04:10:28.902Z,101536.44
2018-09-15T04:12:57.208Z,101538.71
2018-09-15T04:15:25.279Z,101537.76
2018-09-15T04:17:53.327Z,101539.28
2018-09-15T04:20:21.717Z,101540.88
2018-09-15T04:22:49.769Z,101546.48
2018-09-15T04:25:17.823Z,101547.61
2018-09-15T04:27:45.946Z,101552.19
2018-09-15T04:30:14.013Z,101555.73
2018-09-15T04:32:45.236Z,101554.34
2018-09-15T04:35:13.297Z,101558.53
2018-09-15T04:40:20.966Z,101561.44
2018-09-15T04:42:49.760Z,101561.44
2018-09-15T04:45:17.976Z,101553.84
2018-09-15T04:47:46.040Z,101545.41
2018-09-15T04:50:14.148Z,101549.62
2018-09-15T04:52:42.324Z,101556.17
2018-09-15T04:55:10.329Z,101561.89
2018-09-15T04:57:38.545Z,101556.17
2018-09-15T05:00:06.679Z,101568.45
2018-09-15T05:02:34.728Z,101569.20
2018-09-15T05:05:02.764Z,101569.77
2018-09-15T05:07:30.796Z,101565.44
2018-09-15T05:09:58.888Z,101564.12
2018-09-15T05:12:27.004Z,101563.77
2018-09-15T05:14:55.037Z,101568.17
2018-09-15T05:17:23.428Z,101570.33
2018-09-15T05:19:51.481Z,101571.08
2018-09-15T05:22:19.590Z,101575.58
2018-09-15T05:24:47.597Z,101579.05
2018-09-15T05:27:15.651Z,101591.69
2018-09-15T05:29:43.948Z,101595.55
2018-09-15T05:32:12.238Z,101596.58
2018-09-15T05:34:40.267Z,101607.25
2018-09-15T05:37:15.145Z,101609.31
2018-09-15T05:39:43.247Z,101600.69
2018-09-15T05:42:11.237Z,101598.34
2018-09-15T05:44:39.288Z,101602.36
2018-09-15T05:47:07.341Z,101604.52
2018-09-15T05:49:35.441Z,101593.91
2018-09-15T05:52:03.469Z,101604.02
2018-09-15T05:54:31.575Z,101596.07
2018-09-15T05:56:59.642Z,101605.33
2018-09-15T05:59:27.681Z,101608.59
2018-09-15T06:01:55.763Z,101615.43
2018-09-15T06:04:23.766Z,101619.16
2018-09-15T06:06:51.957Z,101624.58
2018-09-15T06:09:19.975Z,101635.18
2018-09-15T06:11:48.037Z,101633.02
2018-09-15T06:14:16.080Z,101633.66
2018-09-15T06:16:44.226Z,101643.57
2018-09-15T06:19:12.569Z,101639.80
2018-09-15T06:21:40.659Z,101648.31
2018-09-15T06:24:08.728Z,101647.00
2018-09-15T06:26:37.373Z,101652.15
2018-09-15T06:29:05.405Z,101652.44
2018-09-15T06:31:33.450Z,101656.95
2018-09-15T06:34:01.506Z,101653.68
2018-09-15T06:36:29.639Z,101654.31
2018-09-15T06:38:57.682Z,101663.81
2018-09-15T06:41:25.819Z,101662.50
2018-09-15T06:43:54.164Z,101671.38
2018-09-15T06:46:22.213Z,101664.98
2018-09-15T06:48:50.245Z,101664.13
2018-09-15T06:51:18.464Z,101673.03
2018-09-15T06:53:46.822Z,101674.91
2018-09-15T06:56:14.947Z,101684.22
2018-09-15T06:58:43.028Z,101682.73
2018-09-15T07:01:11.074Z,101685.89
2018-09-15T07:03:39.108Z,101690.50
2018-09-15T07:06:07.157Z,101689.07
2018-09-15T07:08:35.489Z,101702.48
2018-09-15T07:11:03.511Z,101693.81
2018-09-15T07:13:31.539Z,101699.70
2018-09-15T07:15:59.576Z,101699.69
2018-09-15T07:18:27.612Z,101702.42
2018-09-15T07:20:55.650Z,101706.77
2018-09-15T07:23:23.692Z,101713.22
2018-09-15T07:25:51.779Z,101718.06
2018-09-15T07:28:20.128Z,101720.28
2018-09-15T07:30:48.168Z,101720.45
2018-09-15T07:33:16.233Z,101719.41
2018-09-15T07:35:44.272Z,101724.72
2018-09-15T07:38:12.305Z,101730.14
2018-09-15T07:40:40.344Z,101729.29
2018-09-15T07:43:08.400Z,101740.63
2018-09-15T07:45:36.436Z,101734.73
2018-09-15T07:48:04.796Z,101734.70
2018-09-15T07:50:43.852Z,101736.98
2018-09-15T07:53:12.147Z,101742.45
2018-09-15T07:55:40.195Z,101750.23
2018-09-15T07:58:08.249Z,101754.25
2018-09-15T08:00:36.284Z,101758.42
2018-09-15T08:03:04.899Z,101751.75
2018-09-15T08:05:32.944Z,101757.34
2018-09-15T08:08:01.012Z,101761.97
2018-09-15T08:10:29.060Z,101757.72
2018-09-15T08:12:57.092Z,101767.30
2018-09-15T08:15:31.845Z,101765.31
2018-09-15T08:17:59.901Z,101769.41
2018-09-15T08:20:27.959Z,101769.75
2018-09-15T08:22:56.001Z,101783.13
2018-09-15T08:25:24.035Z,101777.98
2018-09-15T08:27:52.103Z,101780.01
2018-09-15T08:30:20.116Z,101789.97
2018-09-15T08:32:48.415Z,101788.20
2018-09-15T08:35:16.461Z,101787.09
2018-09-15T08:37:46.210Z,101795.12
2018-09-15T08:40:14.697Z,101795.59
2018-09-15T08:42:42.830Z,101798.60
2018-09-15T08:45:10.856Z,101801.99
2018-09-15T08:47:38.905Z,101803.13
2018-09-15T08:50:07.034Z,101789.61
2018-09-15T08:52:35.220Z,101799.14
2018-09-15T08:55:03.450Z,101801.09
2018-09-15T08:57:31.820Z,101794.95
2018-09-15T08:59:59.951Z,101801.95
2018-09-15T09:02:27.989Z,101801.17
2018-09-15T09:04:56.235Z,101802.75
2018-09-15T09:07:24.267Z,101803.59
2018-09-15T09:09:52.331Z,101794.23
2018-09-15T09:12:20.598Z,101799.06
2018-09-15T09:14:48.665Z,101796.77
2018-09-15T09:17:16.700Z,101805.53
2018-09-15T09:19:44.832Z,101805.89
2018-09-15T09:22:12.851Z,101815.19
2018-09-15T09:24:41.282Z,101824.09
2018-09-15T09:27:09.648Z,101818.34
2018-09-15T09:29:37.684Z,101820.94
2018-09-15T09:32:05.720Z,101816.80
2018-09-15T09:34:33.932Z,101816.97
2018-09-15T09:37:02.183Z,101821.23
2018-09-15T09:39:30.256Z,101819.41
2018-09-15T09:41:58.504Z,101818.08
2018-09-15T09:44:26.553Z,101816.43
2018-09-15T09:46:54.652Z,101821.20
2018-09-15T09:49:22.729Z,101819.98
2018-09-15T09:51:50.760Z,101821.95
2018-09-15T09:54:18.816Z,101829.58
2018-09-15T09:56:46.880Z,101824.88
2018-09-15T09:59:15.228Z,101837.39
2018-09-15T10:01:48.699Z,101831.28
2018-09-15T10:04:16.758Z,101833.18
2018-09-15T10:06:44.808Z,101837.11
2018-09-15T10:09:12.861Z,101829.34
2018-09-15T10:11:41.896Z,101834.03
2018-09-15T10:14:10.271Z,101830.94
2018-09-15T10:16:38.582Z,101826.97
2018-09-15T10:19:07.495Z,101831.80
2018-09-15T10:21:35.604Z,101837.82
2018-09-15T10:24:03.589Z,101835.34
2018-09-15T10:26:31.645Z,101834.37
2018-09-15T10:28:59.720Z,101835.77
2018-09-15T10:31:27.802Z,101835.83
2018-09-15T10:33:55.858Z,101838.25
2018-09-15T10:36:23.944Z,101833.23
2018-09-15T10:38:52.000Z,101830.63
2018-09-15T10:41:20.048Z,101833.73
2018-09-15T10:43:48.359Z,101838.89
2018-09-15T10:46:16.423Z,101843.89
2018-09-15T10:48:44.457Z,101842.22
2018-09-15T10:51:12.533Z,101847.62
2018-09-15T10:53:40.603Z,101848.95
2018-09-15T10:56:08.665Z,101845.61
2018-09-15T10:58:36.856Z,101850.61
2018-09-15T11:01:04.921Z,101847.25
2018-09-15T11:03:32.952Z,101845.69
2018-09-15T11:06:01.896Z,101839.91
2018-09-15T11:08:29.907Z,101839.81
2018-09-15T11:10:57.968Z,101846.94
2018-09-15T11:13:26.135Z,101846.67
2018-09-15T11:15:54.673Z,101852.09
2018-09-15T11:18:22.736Z,101864.08
2018-09-15T11:20:50.801Z,101869.17
2018-09-15T11:23:18.894Z,101871.37
2018-09-15T11:25:47.016Z,101874.74
2018-09-15T11:28:15.085Z,101871.98
2018-09-15T11:30:43.154Z,101876.31
2018-09-15T11:33:11.266Z,101867.05
2018-09-15T11:35:39.297Z,101864.03
2018-09-15T11:38:07.339Z,101872.69
2018-09-15T11:40:35.391Z,101870.67
2018-09-15T11:43:03.566Z,101876.67
2018-09-15T11:45:31.604Z,101867.20
2018-09-15T11:48:00.573Z,101870.30
2018-09-15T11:50:28.741Z,101866.83
2018-09-15T11:52:56.795Z,101865.60
2018-09-15T11:55:24.840Z,101865.96
2018-09-15T11:57:53.152Z,101865.56
2018-09-15T12:00:24.322Z,101865.06
2018-09-15T12:02:52.365Z,101864.72
2018-09-15T12:05:20.400Z,101864.42
2018-09-15T12:07:48.497Z,101860.53
2018-09-15T12:10:16.539Z,101869.42
2018-09-15T12:12:44.604Z,101864.03
2018-09-15T12:15:12.648Z,101860.10
2018-09-15T12:17:40.930Z,101860.02
2018-09-15T12:20:09.069Z,101861.42
2018-09-15T12:22:37.125Z,101858.69
2018-09-15T12:25:05.169Z,101860.50
2018-09-15T12:27:33.385Z,101850.28
2018-09-15T12:30:01.415Z,101864.33
2018-09-15T12:32:29.450Z,101868.84
2018-09-15T12:34:57.501Z,101870.01
2018-09-15T12:37:25.584Z,101869.93
2018-09-15T12:39:53.724Z,101871.45
2018-09-15T12:42:21.789Z,101866.85
2018-09-15T12:44:50.029Z,101869.34
2018-09-15T12:47:18.117Z,101869.45
2018-09-15T12:49:46.160Z,101863.77
2018-09-15T12:52:14.299Z,101867.92
2018-09-15T12:54:42.502Z,101865.12
2018-09-15T12:57:10.621Z,101864.90
2018-09-15T12:59:38.709Z,101858.61
2018-09-15T13:02:06.819Z,101859.58
2018-09-15T13:04:35.194Z,101859.28
2018-09-15T13:07:03.269Z,101861.25
2018-09-15T13:09:31.299Z,101866.31
2018-09-15T13:11:59.392Z,101860.14
2018-09-15T13:14:27.448Z,101868.12
2018-09-15T13:16:55.513Z,101863.84
2018-09-15T13:19:23.602Z,101864.63
2018-09-15T13:21:51.648Z,101859.94
2018-09-15T13:24:19.698Z,101853.02
2018-09-15T13:26:47.776Z,101856.58
2018-09-15T13:29:15.815Z,101863.10
2018-09-15T13:31:43.880Z,101868.46
2018-09-15T13:34:11.914Z,101870.16
2018-09-15T13:36:40.034Z,101874.28
2018-09-15T13:39:09.380Z,101873.72
2018-09-15T13:41:43.980Z,101878.88
2018-09-15T13:44:12.012Z,101876.73
2018-09-15T13:46:40.143Z,101875.19
2018-09-15T13:49:08.255Z,101868.66
2018-09-15T13:51:36.965Z,101875.66
2018-09-15T13:54:05.073Z,101877.54
2018-09-15T13:56:33.136Z,101885.48
2018-09-15T13:59:01.573Z,101883.60
2018-09-15T14:01:29.674Z,101888.27
2018-09-15T14:03:57.710Z,101888.52
2018-09-15T14:06:25.774Z,101884.19
2018-09-15T14:08:53.808Z,101880.13
2018-09-15T14:11:21.853Z,101877.18
2018-09-15T14:13:49.892Z,101877.09
2018-09-15T14:16:17.959Z,101872.95
2018-09-15T14:18:46.005Z,101874.58
2018-09-15T14:21:14.064Z,101870.27
2018-09-15T14:23:42.124Z,101881.11
2018-09-15T14:26:10.427Z,101882.82
2018-09-15T14:28:38.466Z,101889.12
2018-09-15T14:31:06.569Z,101883.88
2018-09-15T14:33:34.637Z,101886.20
2018-09-15T14:36:02.673Z,101880.35
2018-09-15T14:38:30.733Z,101873.73
2018-09-15T14:40:58.784Z,101881.55
2018-09-15T14:43:26.833Z,101883.66
2018-09-15T14:45:54.885Z,101886.79
2018-09-15T14:48:22.946Z,101890.25
2018-09-15T14:50:50.973Z,101885.42
2018-09-15T14:55:53.339Z,101902.25
2018-09-15T14:58:21.367Z,101901.03
2018-09-15T15:00:49.425Z,101905.75
2018-09-15T15:03:17.513Z,101900.11
2018-09-15T15:05:45.685Z,101895.09
2018-09-15T15:08:13.777Z,101890.98
2018-09-15T15:10:41.843Z,101889.79
2018-09-15T15:13:09.889Z,101883.78
2018-09-15T15:15:37.965Z,101888.09
2018-09-15T15:18:06.036Z,101879.62
2018-09-15T15:20:34.445Z,101883.42
2018-09-15T15:23:02.504Z,101882.10
2018-09-15T15:25:30.662Z,101884.61
2018-09-15T15:27:58.657Z,101892.05
2018-09-15T15:30:26.932Z,101890.06
2018-09-15T15:32:55.025Z,101889.53
2018-09-15T15:35:23.088Z,101892.39
2018-09-15T15:37:51.456Z,101896.16
2018-09-15T15:40:19.510Z,101889.78
2018-09-15T15:42:48.561Z,101891.72
2018-09-15T15:45:16.662Z,101888.88
2018-09-15T15:47:44.694Z,101890.44
2018-09-15T15:50:12.736Z,101889.83
2018-09-15T15:52:40.772Z,101896.59
2018-09-15T15:55:08.828Z,101891.09
2018-09-15T15:57:43.693Z,101891.34
2018-09-15T16:00:11.753Z,101896.16
2018-09-15T16:02:39.851Z,101893.27
2018-09-15T16:05:25.504Z,101898.23
2018-09-15T16:07:53.545Z,101891.89
2018-09-15T16:10:21.614Z,101889.72
2018-09-15T16:12:49.650Z,101889.28
2018-09-15T16:15:17.714Z,101885.91
2018-09-15T16:17:45.749Z,101883.61
2018-09-15T16:20:13.795Z,101884.39
2018-09-15T16:22:41.833Z,101885.23
2018-09-15T16:25:09.869Z,101884.08
2018-09-15T16:27:37.909Z,101884.80
2018-09-15T16:30:06.475Z,101886.63
2018-09-15T16:32:34.502Z,101890.63
2018-09-15T16:35:02.533Z,101888.05
2018-09-15T16:37:30.558Z,101893.27
2018-09-15T16:39:58.857Z,101892.02
2018-09-15T16:42:26.900Z,101896.73
2018-09-15T16:44:54.929Z,101895.41
2018-09-15T16:47:22.975Z,101896.39
2018-09-15T16:49:51.022Z,101897.72
2018-09-15T16:52:19.090Z,101889.67
2018-09-15T16:54:47.134Z,101888.81
2018-09-15T16:57:15.172Z,101890.38
2018-09-15T16:59:43.318Z,101889.45
2018-09-15T17:02:11.344Z,101885.84
2018-09-15T17:04:39.396Z,101890.66
2018-09-15T17:07:07.565Z,101888.50
2018-09-15T17:09:35.641Z,101895.98
2018-09-15T17:12:03.685Z,101895.50
2018-09-15T17:14:31.738Z,101891.68
2018-09-15T17:16:59.825Z,101897.80
2018-09-15T17:19:27.884Z,101893.49
2018-09-15T17:21:55.929Z,101895.64
2018-09-15T17:24:23.967Z,101899.88
2018-09-15T17:26:52.016Z,101896.51
2018-09-15T17:29:20.089Z,101894.09
2018-09-15T17:31:48.129Z,101900.36
2018-09-15T17:34:16.176Z,101902.88
2018-09-15T17:36:44.224Z,101895.44
2018-09-15T17:39:13.824Z,101898.55
2018-09-15T17:41:41.864Z,101910.43
2018-09-15T17:44:09.944Z,101907.41
2018-09-15T17:46:37.996Z,101915.47
2018-09-15T17:49:06.063Z,101920.51
2018-09-15T17:51:34.114Z,101924.94
2018-09-15T17:54:02.164Z,101927.55
2018-09-15T17:56:30.222Z,101927.55
2018-09-15T17:58:58.261Z,101938.95
2018-09-15T18:01:26.307Z,101939.16
2018-09-15T18:03:54.340Z,101937.92
2018-09-15T18:06:22.543Z,101940.20
2018-09-15T18:08:50.836Z,101944.70
2018-09-15T18:11:18.889Z,101945.16
2018-09-15T18:13:46.928Z,101947.41
2018-09-15T18:16:14.998Z,101950.72
2018-09-15T18:18:43.085Z,101956.45
2018-09-15T18:21:11.148Z,101957.99
2018-09-15T18:23:39.190Z,101950.02
2018-09-15T18:26:07.233Z,101953.36
2018-09-15T18:28:35.283Z,101951.55
2018-09-15T18:31:03.371Z,101962.11
2018-09-15T18:33:31.365Z,101962.31
2018-09-15T18:35:59.516Z,101971.40
2018-09-15T18:38:27.500Z,101976.17
2018-09-15T18:40:55.665Z,101971.22
2018-09-15T18:43:23.738Z,101977.55
2018-09-15T18:45:51.781Z,101968.87
2018-09-15T18:48:19.821Z,101983.22
2018-09-15T18:50:47.871Z,101982.72
2018-09-15T18:53:15.913Z,101986.72
2018-09-15T18:55:44.018Z,101985.48
2018-09-15T18:58:12.077Z,101989.59
2018-09-15T19:00:40.164Z,101985.87
2018-09-15T19:03:12.424Z,101983.77
2018-09-15T19:05:40.469Z,101984.19
2018-09-15T19:08:08.543Z,101982.16
2018-09-15T19:10:36.805Z,101993.58
2018-09-15T19:13:04.848Z,101989.11
2018-09-15T19:15:32.909Z,101993.98
2018-09-15T19:18:00.948Z,101991.93
2018-09-15T19:20:28.985Z,102001.27
2018-09-15T19:22:57.021Z,101999.31
2018-09-15T19:25:25.341Z,101995.55
2018-09-15T19:27:53.432Z,102005.92
2018-09-15T19:30:21.464Z,102002.95
2018-09-15T19:32:49.565Z,102002.61
2018-09-15T19:35:17.562Z,102002.20
2018-09-15T19:37:45.579Z,102009.06
2018-09-15T19:40:13.638Z,102007.22
2018-09-15T19:42:41.733Z,102008.94
2018-09-15T19:45:09.789Z,102015.95
2018-09-15T19:47:37.833Z,102013.25
2018-09-15T19:50:05.897Z,102019.66
2018-09-15T19:52:34.007Z,102020.79
2018-09-15T19:55:02.040Z,102030.78
2018-09-15T19:57:30.082Z,102028.53
2018-09-15T19:59:58.154Z,102025.05
2018-09-15T20:02:26.241Z,102021.13
2018-09-15T20:04:54.393Z,102024.70
2018-09-15T20:07:22.411Z,102027.25
2018-09-15T20:09:50.465Z,102026.67
2018-09-15T20:12:18.517Z,102023.58
2018-09-15T20:14:46.555Z,102026.02
2018-09-15T20:17:13.619Z,102022.94
2018-09-15T20:19:40.694Z,102021.05
2018-09-15T20:22:08.740Z,102021.13
2018-09-15T20:24:37.059Z,102021.98
2018-09-15T20:27:05.061Z,102025.73
2018-09-15T20:29:33.114Z,102023.80
2018-09-15T20:32:01.489Z,102024.92
2018-09-15T20:34:29.537Z,102020.78
2018-09-15T20:36:57.576Z,102026.41
2018-09-15T20:39:25.606Z,102024.53
2018-09-15T20:41:53.652Z,102027.81
2018-09-15T20:44:21.703Z,102029.95
2018-09-15T20:46:49.744Z,102024.86
2018-09-15T20:49:17.823Z,102024.95
2018-09-15T20:51:45.879Z,102029.00
2018-09-15T20:54:13.952Z,102026.07
2018-09-15T20:56:42.079Z,102029.71
2018-09-15T20:59:10.114Z,102026.82
2018-09-15T21:01:38.326Z,102017.13
2018-09-15T21:04:06.505Z,102018.34
2018-09-15T21:06:34.586Z,102028.64
2018-09-15T21:09:02.662Z,102026.63
2018-09-15T21:11:30.705Z,102029.91
2018-09-15T21:13:58.762Z,102030.00
2018-09-15T21:16:26.797Z,102020.15
2018-09-15T21:18:54.845Z,102026.77
2018-09-15T21:21:22.883Z,102025.35
2018-09-15T21:23:50.921Z,102018.68
2018-09-15T21:26:18.988Z,102016.00
2018-09-15T21:28:47.027Z,102019.83
2018-09-15T21:31:15.066Z,102024.77
2018-09-15T21:33:43.190Z,102025.41
2018-09-15T21:36:11.248Z,102022.22
2018-09-15T21:38:39.320Z,102021.61
2018-09-15T21:41:07.401Z,102019.50
2018-09-15T21:43:35.453Z,102020.05
2018-09-15T21:46:03.586Z,102023.22
2018-09-15T21:48:31.613Z,102024.23
2018-09-15T21:50:59.672Z,102021.33
2018-09-15T21:53:27.763Z,102021.33
2018-09-15T21:55:55.746Z,102022.80
2018-09-15T21:58:23.788Z,102020.36
2018-09-15T22:00:56.011Z,102019.69
2018-09-15T22:03:24.064Z,102019.20
2018-09-15T22:05:52.233Z,102018.83
2018-09-15T22:08:20.641Z,102023.22
2018-09-15T22:10:48.984Z,102022.31
2018-09-15T22:13:17.278Z,102020.59
2018-09-15T22:15:45.319Z,102020.59
2018-09-15T22:18:13.364Z,102030.87
2018-09-15T22:20:41.464Z,102024.55
2018-09-15T22:23:09.508Z,102023.79
2018-09-15T22:25:37.549Z,102028.20
2018-09-15T22:28:05.753Z,102021.50
2018-09-15T22:30:33.816Z,102020.06
2018-09-15T22:33:01.849Z,102020.78
2018-09-15T22:35:29.890Z,102017.45
2018-09-15T22:37:57.927Z,102012.30
2018-09-15T22:40:25.973Z,102007.61
2018-09-15T22:42:54.017Z,102015.10
2018-09-15T22:45:22.048Z,102013.80
2018-09-15T22:47:50.094Z,102016.87
2018-09-15T22:50:18.149Z,102014.25
2018-09-15T22:52:46.196Z,102009.09
2018-09-15T22:55:14.243Z,102006.08
2018-09-15T22:57:42.378Z,102014.03
2018-09-15T23:00:10.417Z,102011.41
2018-09-15T23:02:38.450Z,102007.62
2018-09-15T23:05:06.575Z,102010.56
2018-09-15T23:07:34.662Z,102011.88
2018-09-15T23:10:02.734Z,102011.96
2018-09-15T23:12:31.028Z,102012.81
2018-09-15T23:14:59.086Z,102011.51
2018-09-15T23:17:27.131Z,102011.96
2018-09-15T23:19:55.172Z,102007.27
2018-09-15T23:22:23.208Z,102011.65
2018-09-15T23:24:51.296Z,102006.95
2018-09-15T23:27:19.364Z,102002.75
2018-09-15T23:29:47.681Z,101998.42
2018-09-15T23:32:15.724Z,101995.80
2018-09-15T23:34:43.820Z,101997.50
2018-09-15T23:37:11.856Z,101994.80
2018-09-15T23:39:41.944Z,101995.66
2018-09-15T23:42:09.984Z,101996.02
2018-09-15T23:44:38.049Z,101986.55
2018-09-15T23:47:06.115Z,101988.70
2018-09-15T23:49:34.192Z,101983.10
2018-09-15T23:52:02.260Z,101989.70
2018-09-15T23:54:30.301Z,101983.79
2018-09-15T23:56:58.538Z,101982.16
2018-09-15T23:59:26.557Z,101978.95
